createdAt,value
2022-10-22T00:00:35.647Z,1.10
2022-10-22T00:03:03.591Z,0.90
2022-10-22T00:05:31.540Z,1.20
2022-10-22T00:07:59.358Z,1.00
2022-10-22T00:10:27.261Z,1.30
2022-10-22T00:12:55.114Z,1.10
2022-10-22T00:15:23.260Z,1.30
2022-10-22T00:17:52.486Z,1.10
2022-10-22T00:20:20.495Z,1.00
2022-10-22T00:22:48.403Z,1.13
2022-10-22T00:25:16.625Z,1.43
2022-10-22T00:27:44.464Z,1.23
2022-10-22T00:30:13.263Z,0.90
2022-10-22T00:32:41.331Z,0.90
2022-10-22T00:35:10.829Z,0.93
2022-10-22T00:37:38.804Z,1.30
2022-10-22T00:40:07.582Z,0.97
2022-10-22T00:42:35.466Z,1.13
2022-10-22T00:45:16.783Z,1.03
2022-10-22T00:47:50.030Z,0.87
2022-10-22T00:50:22.632Z,1.07
2022-10-22T00:52:51.363Z,0.93
2022-10-22T00:55:20.332Z,0.80
2022-10-22T00:57:48.799Z,0.90
2022-10-22T01:00:17.380Z,0.90
2022-10-22T01:02:45.599Z,1.30
2022-10-22T01:05:13.644Z,0.93
2022-10-22T01:07:47.088Z,0.80
2022-10-22T01:10:25.717Z,0.90
2022-10-22T01:13:02.997Z,1.00
2022-10-22T01:15:38.494Z,0.93
2022-10-22T01:18:10.515Z,0.93
2022-10-22T01:21:09.601Z,0.80
2022-10-22T01:24:09.841Z,1.20
2022-10-22T01:26:54.946Z,0.80
2022-10-22T01:29:28.741Z,1.10
2022-10-22T01:32:00.438Z,0.70
2022-10-22T01:34:30.565Z,0.73
2022-10-22T01:37:00.317Z,0.70
2022-10-22T01:39:30.427Z,0.93
2022-10-22T01:41:58.975Z,1.00
2022-10-22T01:44:30.572Z,1.00
2022-10-22T01:47:08.873Z,0.90
2022-10-22T01:49:54.929Z,0.90
2022-10-22T01:52:32.339Z,0.80
2022-10-22T01:55:07.875Z,0.70
2022-10-22T01:57:45.251Z,0.90
2022-10-22T02:00:18.306Z,0.80
2022-10-22T02:02:53.861Z,1.00
2022-10-22T02:05:25.780Z,1.17
2022-10-22T02:08:00.421Z,0.80
2022-10-22T02:10:30.440Z,0.80
2022-10-22T02:12:59.617Z,1.00
2022-10-22T02:15:32.329Z,0.80
2022-10-22T02:18:01.938Z,0.80
2022-10-22T02:20:32.338Z,1.00
2022-10-22T02:23:01.478Z,0.93
2022-10-22T02:25:34.910Z,0.80
2022-10-22T02:28:09.657Z,1.00
2022-10-22T02:30:40.906Z,1.20
2022-10-22T02:33:12.673Z,0.77
2022-10-22T02:35:42.287Z,0.80
2022-10-22T02:38:11.462Z,0.80
2022-10-22T02:40:39.513Z,0.80
2022-10-22T02:43:08.044Z,0.87
2022-10-22T02:45:36.246Z,0.90
2022-10-22T02:48:06.016Z,1.03
2022-10-22T02:50:33.911Z,0.90
2022-10-22T02:53:01.731Z,0.77
2022-10-22T02:55:29.642Z,1.07
2022-10-22T02:57:57.488Z,0.93
2022-10-22T03:00:25.454Z,0.80
2022-10-22T03:02:53.282Z,0.80
2022-10-22T03:05:22.446Z,0.90
2022-10-22T03:07:50.244Z,0.80
2022-10-22T03:10:18.232Z,1.00
2022-10-22T03:12:46.029Z,0.90
2022-10-22T03:15:14.516Z,0.80
2022-10-22T03:17:42.574Z,1.00
2022-10-22T03:20:11.171Z,0.83
2022-10-22T03:22:43.314Z,0.70
2022-10-22T03:25:14.872Z,0.90
2022-10-22T03:27:43.866Z,1.30
2022-10-22T03:30:13.804Z,0.77
2022-10-22T03:32:41.638Z,0.90
2022-10-22T03:35:09.992Z,0.70
2022-10-22T03:37:39.005Z,0.70
2022-10-22T03:40:11.483Z,0.80
2022-10-22T03:42:39.582Z,0.90
2022-10-22T03:45:08.660Z,0.80
2022-10-22T03:47:36.668Z,0.90
2022-10-22T03:50:05.067Z,0.70
2022-10-22T03:52:37.727Z,0.70
2022-10-22T03:55:06.607Z,0.97
2022-10-22T03:57:35.875Z,0.77
2022-10-22T04:00:05.158Z,0.80
2022-10-22T04:02:33.103Z,0.97
2022-10-22T04:05:00.982Z,0.80
2022-10-22T04:07:28.891Z,0.83
2022-10-22T04:09:56.743Z,0.70
2022-10-22T04:12:24.592Z,0.80
2022-10-22T04:14:53.861Z,0.80
2022-10-22T04:17:21.699Z,0.80
2022-10-22T04:19:49.520Z,0.73
2022-10-22T04:22:17.364Z,0.60
2022-10-22T04:24:45.228Z,0.83
2022-10-22T04:27:13.085Z,0.80
2022-10-22T04:29:40.918Z,0.97
2022-10-22T04:32:10.111Z,0.80
2022-10-22T04:34:37.952Z,0.80
2022-10-22T04:37:05.857Z,0.70
2022-10-22T04:39:33.678Z,0.90
2022-10-22T04:42:01.527Z,0.80
2022-10-22T04:44:29.355Z,1.00
2022-10-22T04:46:57.320Z,0.70
2022-10-22T04:49:26.562Z,0.73
2022-10-22T04:51:54.683Z,0.97
2022-10-22T04:54:23.245Z,0.70
2022-10-22T04:56:51.105Z,0.60
2022-10-22T04:59:18.910Z,0.90
2022-10-22T05:01:46.742Z,0.70
2022-10-22T05:04:16.748Z,0.80
2022-10-22T05:06:46.249Z,1.07
2022-10-22T05:09:15.981Z,0.87
2022-10-22T05:11:48.257Z,0.80
2022-10-22T05:14:17.657Z,0.70
2022-10-22T05:16:48.179Z,0.80
2022-10-22T05:19:19.515Z,0.70
2022-10-22T05:21:48.877Z,0.80
2022-10-22T05:24:16.717Z,0.70
2022-10-22T05:26:44.569Z,0.80
2022-10-22T05:29:12.459Z,0.63
2022-10-22T05:31:41.061Z,0.80
2022-10-22T05:34:08.920Z,0.70
2022-10-22T05:36:36.833Z,0.70
2022-10-22T05:39:06.274Z,0.80
2022-10-22T05:41:36.610Z,0.80
2022-10-22T05:44:04.942Z,0.70
2022-10-22T05:46:36.712Z,0.70
2022-10-22T05:49:06.476Z,0.80
2022-10-22T05:51:36.422Z,0.70
2022-10-22T05:54:08.326Z,0.70
2022-10-22T05:56:36.774Z,0.70
2022-10-22T05:59:05.174Z,0.77
2022-10-22T06:01:35.240Z,0.73
2022-10-22T06:04:05.527Z,0.70
2022-10-22T06:06:36.367Z,0.70
2022-10-22T06:09:08.891Z,0.73
2022-10-22T06:11:36.891Z,0.80
2022-10-22T06:14:05.589Z,0.90
2022-10-22T06:16:33.734Z,0.70
2022-10-22T06:19:02.834Z,0.70
2022-10-22T06:21:31.683Z,0.80
2022-10-22T06:24:00.162Z,0.73
2022-10-22T06:26:30.088Z,0.77
2022-10-22T06:28:58.407Z,0.70
2022-10-22T06:31:27.353Z,0.70
2022-10-22T06:33:55.766Z,0.70
2022-10-22T06:36:25.059Z,0.70
2022-10-22T06:38:53.743Z,0.80
2022-10-22T06:41:24.291Z,0.70
2022-10-22T06:43:57.324Z,0.87
2022-10-22T06:46:26.111Z,0.70
2022-10-22T06:48:55.600Z,0.70
2022-10-22T06:51:23.605Z,0.67
2022-10-22T06:53:51.546Z,0.80
2022-10-22T06:56:21.751Z,0.80
2022-10-22T06:58:50.481Z,0.80
2022-10-22T07:01:21.746Z,0.73
2022-10-22T07:03:52.117Z,0.80
2022-10-22T07:06:20.400Z,0.90
2022-10-22T07:08:48.812Z,0.60
2022-10-22T07:11:18.281Z,0.60
2022-10-22T07:13:47.405Z,0.80
2022-10-22T07:16:16.488Z,0.60
2022-10-22T07:18:47.417Z,0.70
2022-10-22T07:21:17.258Z,0.70
2022-10-22T07:23:45.661Z,0.70
2022-10-22T07:26:16.066Z,0.80
2022-10-22T07:28:44.142Z,0.60
2022-10-22T07:31:14.039Z,0.80
2022-10-22T07:33:42.373Z,0.80
2022-10-22T07:36:17.389Z,0.70
2022-10-22T07:38:45.934Z,0.80
2022-10-22T07:41:14.236Z,0.70
2022-10-22T07:43:42.449Z,0.90
2022-10-22T07:46:10.306Z,0.70
2022-10-22T07:48:38.421Z,0.73
2022-10-22T07:51:06.639Z,0.70
2022-10-22T07:53:36.153Z,0.60
2022-10-22T07:56:04.211Z,0.70
2022-10-22T07:58:32.247Z,0.70
2022-10-22T08:01:02.000Z,0.70
2022-10-22T08:03:30.780Z,0.70
2022-10-22T08:05:58.720Z,0.70
2022-10-22T08:08:29.744Z,0.90
2022-10-22T08:11:01.744Z,0.70
2022-10-22T08:13:31.037Z,0.70
2022-10-22T08:15:59.869Z,0.63
2022-10-22T08:18:28.345Z,0.77
2022-10-22T08:20:56.309Z,0.70
2022-10-22T08:23:26.097Z,0.70
2022-10-22T08:25:56.933Z,0.80
2022-10-22T08:28:28.495Z,0.60
2022-10-22T08:30:56.815Z,0.80
2022-10-22T08:33:24.665Z,0.60
2022-10-22T08:35:53.438Z,0.70
2022-10-22T08:38:21.564Z,0.63
2022-10-22T08:40:51.031Z,0.80
2022-10-22T08:43:55.117Z,0.70
2022-10-22T08:46:34.762Z,0.70
2022-10-22T08:49:06.372Z,0.60
2022-10-22T08:51:40.225Z,0.70
2022-10-22T08:54:23.567Z,0.80
2022-10-22T08:57:03.429Z,1.00
2022-10-22T08:59:38.774Z,0.77
2022-10-22T09:02:23.786Z,0.70
2022-10-22T09:05:00.408Z,0.70
2022-10-22T09:07:28.269Z,0.70
2022-10-22T09:09:58.835Z,0.70
2022-10-22T09:12:28.091Z,0.70
2022-10-22T09:14:56.011Z,0.70
2022-10-22T09:17:33.841Z,0.70
2022-10-22T09:20:08.006Z,0.70
2022-10-22T09:22:40.949Z,0.70
2022-10-22T09:25:19.943Z,0.80
2022-10-22T09:27:48.342Z,0.80
2022-10-22T09:30:19.560Z,0.70
2022-10-22T09:32:51.750Z,0.80
2022-10-22T09:35:24.133Z,0.83
2022-10-22T09:37:53.790Z,0.60
2022-10-22T09:40:22.762Z,0.70
2022-10-22T09:42:50.774Z,0.87
2022-10-22T09:45:21.513Z,0.60
2022-10-22T09:48:01.588Z,0.60
2022-10-22T09:50:38.007Z,0.70
2022-10-22T09:53:13.321Z,0.80
2022-10-22T09:55:43.276Z,0.70
2022-10-22T09:58:13.763Z,0.70
2022-10-22T10:00:44.461Z,0.67
2022-10-22T10:03:19.458Z,0.70
2022-10-22T10:05:50.003Z,0.60
2022-10-22T10:08:18.766Z,0.60
2022-10-22T10:10:49.753Z,0.63
2022-10-22T10:13:40.322Z,0.77
2022-10-22T10:16:16.736Z,0.60
2022-10-22T10:19:02.674Z,0.80
2022-10-22T10:21:40.048Z,0.67
2022-10-22T10:24:20.922Z,0.60
2022-10-22T10:26:55.923Z,0.77
2022-10-22T10:32:29.692Z,0.70
2022-10-22T10:35:10.008Z,0.60
2022-10-22T10:37:44.793Z,0.60
2022-10-22T10:40:29.400Z,0.80
2022-10-22T10:43:01.491Z,0.70
2022-10-22T10:45:38.853Z,0.80
2022-10-22T10:48:16.380Z,0.60
2022-10-22T10:50:57.861Z,0.70
2022-10-22T10:53:37.421Z,0.87
2022-10-22T10:56:26.133Z,0.60
2022-10-22T10:59:02.021Z,0.70
2022-10-22T11:01:38.488Z,0.73
2022-10-22T11:04:34.218Z,0.60
2022-10-22T11:07:11.764Z,0.70
2022-10-22T11:09:56.440Z,0.60
2022-10-22T11:12:29.835Z,0.60
2022-10-22T11:15:03.413Z,0.60
2022-10-22T11:17:37.021Z,0.60
2022-10-22T11:20:15.758Z,0.70
2022-10-22T11:23:13.492Z,0.60
2022-10-22T11:25:43.486Z,0.60
2022-10-22T11:30:54.525Z,0.60
2022-10-22T11:33:25.775Z,0.60
2022-10-22T11:35:54.700Z,0.63
2022-10-22T11:38:26.932Z,0.60
2022-10-22T11:41:00.334Z,0.60
2022-10-22T11:43:31.667Z,0.70
2022-10-22T11:46:03.628Z,0.70
2022-10-22T11:48:38.216Z,0.73
2022-10-22T11:51:26.856Z,0.70
2022-10-22T11:53:59.592Z,0.67
2022-10-22T11:56:28.983Z,0.70
2022-10-22T11:58:57.105Z,0.60
2022-10-22T12:01:28.961Z,0.80
2022-10-22T12:04:17.084Z,0.67
2022-10-22T12:06:59.168Z,0.90
2022-10-22T12:09:32.309Z,0.60
2022-10-22T12:12:11.200Z,0.80
2022-10-22T12:14:52.092Z,0.60
2022-10-22T12:17:22.555Z,0.70
2022-10-22T12:19:57.462Z,0.60
2022-10-22T12:22:30.002Z,0.70
2022-10-22T12:25:03.950Z,0.70
2022-10-22T12:27:37.309Z,0.80
2022-10-22T12:30:19.664Z,0.60
2022-10-22T12:32:47.539Z,0.70
2022-10-22T12:35:18.126Z,0.60
2022-10-22T12:37:46.192Z,0.70
2022-10-22T12:40:23.954Z,0.67
2022-10-22T12:42:52.869Z,0.70
2022-10-22T12:45:21.551Z,0.60
2022-10-22T12:47:51.167Z,0.60
2022-10-22T12:50:21.423Z,0.60
2022-10-22T12:52:50.211Z,0.60
2022-10-22T12:55:19.281Z,0.90
2022-10-22T12:57:49.705Z,0.70
2022-10-22T13:00:22.786Z,0.80
2022-10-22T13:02:51.095Z,0.53
2022-10-22T13:05:24.970Z,0.80
2022-10-22T13:07:54.291Z,0.67
2022-10-22T13:10:27.186Z,0.80
2022-10-22T13:12:58.857Z,0.80
2022-10-22T13:15:38.550Z,0.60
2022-10-22T13:18:15.758Z,0.60
2022-10-22T13:20:52.738Z,0.70
2022-10-22T13:23:22.214Z,0.70
2022-10-22T13:25:59.148Z,0.70
2022-10-22T13:28:29.520Z,0.60
2022-10-22T13:30:59.008Z,0.60
2022-10-22T13:33:30.504Z,0.70
2022-10-22T13:35:58.434Z,0.60
2022-10-22T13:38:28.214Z,0.70
2022-10-22T13:40:57.228Z,0.80
2022-10-22T13:43:25.320Z,0.70
2022-10-22T13:45:58.453Z,0.60
2022-10-22T13:48:28.819Z,0.70
2022-10-22T13:50:56.707Z,0.80
2022-10-22T13:53:26.936Z,0.60
2022-10-22T13:55:54.776Z,0.73
2022-10-22T13:58:25.012Z,0.60
2022-10-22T14:00:57.065Z,0.87
2022-10-22T14:03:29.091Z,0.70
2022-10-22T14:05:57.080Z,0.90
2022-10-22T14:08:26.731Z,0.60
2022-10-22T14:10:55.070Z,0.70
2022-10-22T14:13:23.180Z,0.60
2022-10-22T14:15:52.420Z,0.70
2022-10-22T14:18:26.545Z,0.63
2022-10-22T14:20:56.807Z,0.60
2022-10-22T14:23:27.333Z,0.80
2022-10-22T14:25:57.220Z,0.63
2022-10-22T14:28:25.597Z,0.60
2022-10-22T14:30:53.774Z,0.70
2022-10-22T14:33:28.773Z,0.60
2022-10-22T14:35:59.885Z,0.70
2022-10-22T14:38:27.994Z,0.80
2022-10-22T14:40:56.512Z,0.70
2022-10-22T14:43:26.500Z,0.80
2022-10-22T14:45:54.472Z,0.70
2022-10-22T14:48:23.682Z,0.60
2022-10-22T14:50:51.998Z,0.70
2022-10-22T14:53:19.892Z,0.60
2022-10-22T14:55:49.170Z,0.60
2022-10-22T14:58:17.135Z,0.60
2022-10-22T15:00:45.050Z,0.80
2022-10-22T15:03:13.079Z,0.60
2022-10-22T15:05:44.700Z,0.60
2022-10-22T15:08:13.833Z,0.60
2022-10-22T15:10:42.102Z,0.60
2022-10-22T15:13:10.378Z,0.60
2022-10-22T15:15:40.766Z,0.70
2022-10-22T15:18:08.595Z,0.70
2022-10-22T15:20:36.418Z,0.60
2022-10-22T15:23:05.645Z,0.80
2022-10-22T15:25:33.442Z,0.63
2022-10-22T15:28:09.186Z,0.60
2022-10-22T15:30:37.946Z,0.70
2022-10-22T15:33:07.176Z,0.60
2022-10-22T15:35:34.984Z,0.60
2022-10-22T15:38:02.813Z,0.70
2022-10-22T15:40:31.947Z,0.70
2022-10-22T15:42:59.745Z,0.87
2022-10-22T15:45:27.538Z,0.80
2022-10-22T15:47:55.360Z,0.57
2022-10-22T15:50:23.178Z,0.70
2022-10-22T15:52:51.020Z,0.60
2022-10-22T15:55:19.007Z,0.60
2022-10-22T15:57:54.611Z,0.70
2022-10-22T16:00:22.892Z,0.70
2022-10-22T16:02:50.727Z,0.80
2022-10-22T16:05:18.700Z,0.60
2022-10-22T16:07:46.592Z,0.60
2022-10-22T16:10:14.424Z,0.70
2022-10-22T16:12:43.322Z,0.60
2022-10-22T16:15:13.036Z,0.83
2022-10-22T16:17:40.843Z,0.80
2022-10-22T16:20:09.742Z,0.60
2022-10-22T16:22:37.625Z,0.77
2022-10-22T16:25:06.238Z,0.60
2022-10-22T16:27:34.097Z,0.60
2022-10-22T16:30:01.934Z,0.57
2022-10-22T16:32:31.135Z,0.60
2022-10-22T16:34:59.003Z,0.63
2022-10-22T16:37:26.939Z,0.60
2022-10-22T16:39:54.787Z,0.90
2022-10-22T16:42:22.641Z,0.57
2022-10-22T16:44:50.455Z,0.60
2022-10-22T16:47:18.278Z,0.70
2022-10-22T16:49:47.453Z,0.60
2022-10-22T16:52:15.272Z,0.67
2022-10-22T16:54:43.082Z,0.73
2022-10-22T16:57:12.310Z,0.63
2022-10-22T16:59:40.134Z,0.90
2022-10-22T17:02:08.016Z,0.80
2022-10-22T17:04:35.970Z,0.90
2022-10-22T17:07:05.121Z,0.70
2022-10-22T17:09:32.945Z,0.80
2022-10-22T17:12:00.778Z,0.70
2022-10-22T17:14:28.630Z,0.70
2022-10-22T17:16:56.455Z,0.77
2022-10-22T17:19:25.230Z,0.70
2022-10-22T17:21:53.561Z,0.70
2022-10-22T17:24:22.745Z,0.87
2022-10-22T17:26:50.578Z,0.77
2022-10-22T17:29:18.423Z,0.70
2022-10-22T17:31:46.240Z,0.80
2022-10-22T17:34:17.470Z,0.90
2022-10-22T17:36:45.694Z,0.80
2022-10-22T17:39:17.641Z,0.80
2022-10-22T17:41:46.945Z,0.90
2022-10-22T17:44:16.419Z,0.90
2022-10-22T17:46:45.297Z,0.93
2022-10-22T17:49:17.685Z,0.70
2022-10-22T17:51:45.584Z,0.70
2022-10-22T17:54:13.929Z,0.63
2022-10-22T17:56:42.283Z,0.70
2022-10-22T17:59:14.488Z,0.70
2022-10-22T18:01:45.394Z,0.90
2022-10-22T18:04:16.083Z,0.60
2022-10-22T18:06:43.930Z,0.70
2022-10-22T18:09:17.407Z,0.80
2022-10-22T18:11:46.640Z,0.80
2022-10-22T18:14:15.955Z,0.80
2022-10-22T18:16:43.835Z,1.13
2022-10-22T18:19:13.433Z,0.70
2022-10-22T18:21:41.242Z,0.87
2022-10-22T18:24:10.729Z,0.70
2022-10-22T18:26:38.569Z,0.60
2022-10-22T18:29:06.421Z,0.87
2022-10-22T18:31:35.625Z,0.87
2022-10-22T18:34:03.437Z,0.90
2022-10-22T18:36:31.248Z,0.77
2022-10-22T18:39:00.806Z,1.00
2022-10-22T18:41:29.493Z,0.80
2022-10-22T18:43:58.901Z,0.70
2022-10-22T18:46:27.761Z,1.10
2022-10-22T18:48:58.186Z,0.80
2022-10-22T18:51:28.276Z,1.07
2022-10-22T18:54:05.260Z,0.70
2022-10-22T18:56:40.857Z,0.90
2022-10-22T18:59:16.366Z,1.03
2022-10-22T19:01:44.240Z,0.80
2022-10-22T19:04:14.267Z,0.83
2022-10-22T19:06:45.809Z,0.87
2022-10-22T19:09:14.743Z,0.80
2022-10-22T19:11:43.442Z,0.90
2022-10-22T19:14:11.302Z,1.10
2022-10-22T19:16:39.178Z,0.90
2022-10-22T19:19:08.299Z,0.80
2022-10-22T19:21:38.372Z,0.90
2022-10-22T19:24:07.205Z,0.83
2022-10-22T19:26:35.111Z,0.70
2022-10-22T19:29:03.350Z,0.90
2022-10-22T19:31:31.608Z,0.90
2022-10-22T19:34:00.424Z,1.00
2022-10-22T19:36:29.990Z,0.83
2022-10-22T19:38:59.965Z,1.07
2022-10-22T19:41:30.018Z,0.93
2022-10-22T19:43:58.768Z,0.83
2022-10-22T19:46:28.734Z,0.80
2022-10-22T19:48:57.380Z,0.80
2022-10-22T19:51:27.584Z,1.00
2022-10-22T19:54:01.123Z,1.17
2022-10-22T19:56:30.180Z,0.90
2022-10-22T19:58:58.062Z,0.90
2022-10-22T20:01:26.452Z,1.00
2022-10-22T20:03:54.673Z,1.00
2022-10-22T20:06:22.824Z,0.70
2022-10-22T20:08:53.877Z,0.97
2022-10-22T20:11:27.200Z,1.20
2022-10-22T20:13:56.504Z,1.00
2022-10-22T20:16:25.977Z,1.00
2022-10-22T20:18:54.083Z,0.90
2022-10-22T20:21:22.352Z,1.10
2022-10-22T20:23:54.117Z,1.20
2022-10-22T20:26:23.853Z,1.13
2022-10-22T20:28:53.170Z,1.10
2022-10-22T20:31:22.492Z,1.23
2022-10-22T20:33:51.381Z,1.00
2022-10-22T20:36:21.029Z,1.00
2022-10-22T20:38:49.214Z,0.90
2022-10-22T20:41:18.789Z,1.03
2022-10-22T20:43:47.740Z,1.20
2022-10-22T20:46:19.771Z,1.10
2022-10-22T20:48:48.026Z,1.30
2022-10-22T20:51:15.879Z,1.20
2022-10-22T20:53:43.860Z,1.10
2022-10-22T20:56:12.357Z,1.20
2022-10-22T20:58:40.345Z,1.20
2022-10-22T21:01:12.081Z,1.13
2022-10-22T21:03:41.400Z,1.17
2022-10-22T21:06:09.445Z,0.90
2022-10-22T21:08:37.366Z,1.10
2022-10-22T21:11:05.424Z,0.83
2022-10-22T21:13:34.216Z,1.13
2022-10-22T21:16:08.538Z,1.23
2022-10-22T21:18:36.521Z,1.10
2022-10-22T21:21:07.102Z,1.17
2022-10-22T21:23:35.949Z,0.90
2022-10-22T21:26:04.780Z,0.90
2022-10-22T21:28:35.233Z,1.20
2022-10-22T21:31:03.507Z,1.33
2022-10-22T21:33:31.351Z,0.83
2022-10-22T21:35:59.236Z,1.07
2022-10-22T21:38:28.469Z,1.20
2022-10-22T21:40:56.338Z,1.20
2022-10-22T21:43:24.204Z,0.97
2022-10-22T21:45:52.056Z,1.00
2022-10-22T21:48:19.918Z,1.00
2022-10-22T21:50:49.776Z,1.13
2022-10-22T21:53:17.655Z,1.03
2022-10-22T21:55:47.154Z,1.13
2022-10-22T21:58:15.103Z,1.07
2022-10-22T22:00:42.940Z,1.00
2022-10-22T22:03:10.807Z,1.00
2022-10-22T22:05:39.365Z,1.20
2022-10-22T22:08:07.591Z,1.13
2022-10-22T22:10:35.428Z,0.90
2022-10-22T22:13:04.649Z,1.50
2022-10-22T22:15:34.569Z,1.23
2022-10-22T22:18:02.708Z,0.87
2022-10-22T22:20:31.063Z,1.17
2022-10-22T22:22:58.905Z,1.07
2022-10-22T22:25:26.807Z,1.00
2022-10-22T22:27:54.631Z,1.00
2022-10-22T22:30:24.980Z,1.20
2022-10-22T22:32:52.805Z,1.23
2022-10-22T22:35:20.794Z,1.00
2022-10-22T22:37:48.665Z,1.27
2022-10-22T22:40:16.532Z,1.20
2022-10-22T22:42:44.358Z,1.20
2022-10-22T22:45:12.313Z,1.03
2022-10-22T22:47:41.723Z,1.20
2022-10-22T22:50:09.789Z,1.40
2022-10-22T22:52:37.626Z,1.00
2022-10-22T22:55:06.347Z,1.00
2022-10-22T22:57:34.210Z,1.00
2022-10-22T23:00:02.041Z,1.43
2022-10-22T23:02:29.862Z,1.13
2022-10-22T23:04:59.058Z,1.23
2022-10-22T23:07:26.946Z,1.13
2022-10-22T23:09:54.773Z,1.20
2022-10-22T23:12:22.641Z,1.00
2022-10-22T23:14:52.022Z,1.00
2022-10-22T23:17:20.340Z,1.33
2022-10-22T23:19:48.183Z,1.20
2022-10-22T23:22:17.368Z,1.40
2022-10-22T23:24:45.186Z,1.10
2022-10-22T23:27:12.997Z,1.00
2022-10-22T23:29:40.850Z,1.30
2022-10-22T23:32:14.137Z,1.13
2022-10-22T23:34:42.046Z,0.90
2022-10-22T23:37:11.833Z,1.33
2022-10-22T23:39:41.038Z,1.20
2022-10-22T23:42:08.892Z,1.37
2022-10-22T23:44:36.701Z,1.13
2022-10-22T23:47:04.554Z,1.50
2022-10-22T23:49:32.777Z,1.27
2022-10-22T23:52:00.627Z,1.03
2022-10-22T23:54:28.440Z,1.30
2022-10-22T23:56:57.670Z,1.43
2022-10-22T23:59:25.497Z,1.30
